Olympic Scout — WDD7216 — position and weather

sailwx.info

Track history (hours):
 
Tides and Currents Weather Stations Pressure Air Temp Water Temp Dewpoint Dewpoint Depression Visibility Wind Speed Wind Dir Waves Ship Positions

Olympic Scout

Owner: Harley Marine Services, Inc., Seattle, WA. More information available from US FCC via Universal Licensing System and Coast Guard Vessel Documentation Center.

Last reported at 2018-Aug-13 23:20 UTC. Time now 2018-Aug-14 07:03 UTC.
Position N 48°43' W 122°44'.

Length 31 m; draft 0.3 m.

Type: Tug. MMSI: 366998440.

Date/timePositionNaut miles runAvg speedWind from/ knotsBaromVisibWave heightAir tempDewpointWater temp
2018-Aug-13 23:20N 48°43' W 122°44'3 7.6
2018-Aug-13 23:00N 48°41' W 122°42'4 7.3
2018-Aug-13 22:30N 48°37' W 122°44'4 7.6
2018-Aug-13 22:00N 48°34' W 122°45'3 6.4
2018-Aug-13 21:30N 48°30' W 122°44'34 6.7
2018-Aug-13 16:21N 47°57' W 122°32'3 9.3
2018-Aug-13 16:00N 47°55' W 122°29'4 8.8
2018-Aug-13 15:30N 47°50' W 122°27'4 8.3
2018-Aug-13 15:00N 47°46' W 122°26'4 7.8
2018-Aug-13 14:30N 47°42' W 122°26'4 7.3
2018-Aug-13 14:00N 47°39' W 122°26'4 7.6
2018-Aug-13 13:30N 47°36' W 122°22'1 2.5
2018-Aug-13 13:00N 47°35' W 122°21'0 0.0
2018-Aug-13 12:30N 47°35' W 122°21'0 0.0
2018-Aug-13 11:59N 47°35' W 122°21'0 0.0
2018-Aug-13 11:30N 47°35' W 122°21'0 0.0
2018-Aug-13 11:00N 47°35' W 122°21'0 0.1
2018-Aug-13 10:30N 47°35' W 122°21'0 0.1
2018-Aug-13 10:00N 47°35' W 122°21'0 0.0
2018-Aug-13 09:30N 47°35' W 122°21'0 0.0
2018-Aug-13 09:00N 47°35' W 122°21'0 0.0
2018-Aug-13 08:30N 47°35' W 122°21'0 0.0
2018-Aug-13 08:00N 47°35' W 122°21'0 0.0
2018-Aug-13 07:30N 47°35' W 122°21'0 0.0
2018-Aug-13 07:00N 47°35' W 122°21'0 0.0
2018-Aug-13 06:30N 47°35' W 122°21'0 0.0
2018-Aug-13 06:00N 47°35' W 122°21'0 0.0
2018-Aug-13 05:30N 47°35' W 122°21'0 0.0
2018-Aug-13 05:00N 47°35' W 122°21'0 0.0
2018-Aug-13 04:30N 47°35' W 122°21'0 0.0
2018-Aug-13 04:00N 47°35' W 122°21'0 0.0
2018-Aug-13 03:30N 47°35' W 122°21'1 2.0
2018-Aug-13 02:59N 47°34' W 122°21'0 0.0
2018-Aug-13 02:30N 47°34' W 122°21'0 0.0
2018-Aug-13 02:00N 47°34' W 122°21'0 0.0
2018-Aug-13 01:30N 47°34' W 122°21'0 0.0
2018-Aug-13 01:00N 47°34' W 122°21'0 0.0
2018-Aug-13 00:30N 47°34' W 122°21'0 0.0
2018-Aug-12 23:58N 47°34' W 122°21'0 0.0
2018-Aug-12 23:30N 47°34' W 122°21'0 0.0
2018-Aug-12 23:00N 47°34' W 122°21'0 0.0
2018-Aug-12 22:30N 47°34' W 122°21'0 0.0
2018-Aug-12 22:00N 47°34' W 122°21'0 0.0
2018-Aug-12 21:30N 47°34' W 122°21'0 0.0
2018-Aug-12 21:00N 47°34' W 122°21'0 0.0
2018-Aug-12 20:30N 47°34' W 122°21'1 1.2
2018-Aug-12 20:00N 47°35' W 122°21'1 1.2
2018-Aug-12 19:30N 47°34' W 122°21'0 0.1
2018-Aug-12 19:01N 47°34' W 122°21'1 2.0
2018-Aug-12 18:30N 47°35' W 122°21'1 1.9
2018-Aug-12 18:00N 47°36' W 122°22'3 6.0
2018-Aug-12 17:30N 47°35' W 122°26'4 7.6
2018-Aug-12 17:00N 47°31' W 122°25'4 8.1
2018-Aug-12 16:30N 47°27' W 122°24'4 7.7
2018-Aug-12 16:00N 47°24' W 122°21'4 7.2
2018-Aug-12 15:30N 47°21' W 122°24'4 7.3
2018-Aug-12 15:00N 47°18' W 122°27'2 4.4
2018-Aug-12 14:30N 47°16' W 122°26'0 0.2
2018-Aug-12 14:00N 47°16' W 122°26'0 0.0
2018-Aug-12 13:30N 47°16' W 122°26'0 0.0
2018-Aug-12 13:00N 47°16' W 122°26'0 0.0
2018-Aug-12 12:30N 47°16' W 122°26'0 0.0
2018-Aug-12 12:00N 47°16' W 122°26'0 0.0
2018-Aug-12 11:30N 47°16' W 122°26'0 0.0
2018-Aug-12 11:00N 47°16' W 122°26'0 0.0
2018-Aug-12 10:30N 47°16' W 122°26'0 0.0
2018-Aug-12 10:00N 47°16' W 122°26'0 0.0
2018-Aug-12 09:30N 47°16' W 122°26'0 0.0
2018-Aug-12 09:00N 47°16' W 122°26'0 0.0
2018-Aug-12 08:30N 47°16' W 122°26'0 0.0
2018-Aug-12 08:00N 47°16' W 122°26'0 0.0
2018-Aug-12 07:30N 47°16' W 122°26'0 0.0
2018-Aug-12 07:00N 47°16' W 122°26'0 0.0
2018-Aug-12 06:30N 47°16' W 122°26'0 0.0
2018-Aug-12 06:00N 47°16' W 122°26'0 0.0
2018-Aug-12 05:30N 47°16' W 122°26'0 0.0
2018-Aug-12 05:00N 47°16' W 122°26'0 0.0
2018-Aug-12 04:30N 47°16' W 122°26'2 2.9
2018-Aug-12 03:58N 47°17' W 122°27'1 1.3
2018-Aug-12 03:30N 47°17' W 122°27'2 3.8
2018-Aug-12 03:01N 47°19' W 122°28'3 5.5
2018-Aug-12 02:30N 47°21' W 122°25'3 5.7
2018-Aug-12 02:00N 47°23' W 122°22'3 6.5
2018-Aug-12 01:30N 47°26' W 122°24'3 5.9
2018-Aug-12 01:00N 47°29' W 122°26'3 5.9
2018-Aug-12 00:30N 47°32' W 122°27'3 6.0
2018-Aug-12 00:00N 47°35' W 122°28'3 5.9
2018-Aug-11 23:30N 47°38' W 122°28'3 6.0
2018-Aug-11 23:00N 47°41' W 122°28'3 5.7
2018-Aug-11 22:30N 47°44' W 122°28'3 5.8
2018-Aug-11 21:59N 47°47' W 122°27'3 5.7
2018-Aug-11 21:30N 47°49' W 122°28'3 6.1
2018-Aug-11 21:00N 47°52' W 122°29'3 6.0
2018-Aug-11 20:31N 47°55' W 122°30'31 3.6
2018-Aug-11 11:47N 48°25' W 122°45'2 5.6
2018-Aug-11 11:29N 48°26' W 122°45'3 5.6
2018-Aug-11 10:59N 48°29' W 122°45'3 5.3
2018-Aug-11 10:30N 48°32' W 122°45'3 5.3
2018-Aug-11 10:00N 48°34' W 122°45'3 5.2
2018-Aug-11 09:30N 48°37' W 122°45'3 5.2
2018-Aug-11 09:00N 48°39' W 122°44'3 5.3
2018-Aug-11 08:30N 48°42' W 122°44'2 0.2
2018-Aug-10 19:28N 48°44' W 122°45'3 5.6
2018-Aug-10 19:00N 48°42' W 122°43'3 5.6
2018-Aug-10 18:30N 48°39' W 122°43'3 5.2
2018-Aug-10 18:00N 48°37' W 122°45'2 4.5
2018-Aug-10 17:30N 48°35' W 122°45'3 5.2
2018-Aug-10 16:59N 48°32' W 122°44'2 3.3
2018-Aug-10 16:29N 48°30' W 122°44'2 3.8
2018-Aug-10 16:00N 48°28' W 122°44'4 3.5
2018-Aug-10 14:49N 48°24' W 122°44'2 4.3
2018-Aug-10 14:26N 48°23' W 122°44'27 7.1
2018-Aug-10 10:40N 47°57' W 122°32'1 7.5
2018-Aug-10 10:29N 47°56' W 122°31'3 7.2
2018-Aug-10 10:00N 47°53' W 122°28'4 7.2
2018-Aug-10 09:30N 47°50' W 122°27'4 7.3
2018-Aug-10 09:00N 47°46' W 122°26'4 7.1
2018-Aug-10 08:30N 47°43' W 122°26'3 6.7
2018-Aug-10 08:00N 47°39' W 122°27'3 6.7
2018-Aug-10 07:30N 47°37' W 122°24'2 4.0
2018-Aug-10 07:00N 47°36' W 122°21'0 0.5
2018-Aug-10 06:30N 47°35' W 122°21'0 0.0
2018-Aug-10 06:00N 47°35' W 122°21'0 0.0
2018-Aug-10 05:30N 47°35' W 122°21'0 0.2
2018-Aug-10 05:00N 47°35' W 122°21'0 0.4
2018-Aug-10 04:29N 47°35' W 122°21'0 0.0
2018-Aug-10 04:00N 47°35' W 122°21'0 0.0
2018-Aug-10 03:30N 47°35' W 122°21'0 0.0
2018-Aug-10 03:00N 47°35' W 122°21'0 0.0
2018-Aug-10 02:30N 47°35' W 122°21'0 0.0
2018-Aug-10 02:00N 47°35' W 122°21'0 0.0
2018-Aug-10 01:30N 47°35' W 122°21'0 0.1
2018-Aug-10 01:00N 47°35' W 122°21'0 0.5
2018-Aug-10 00:30N 47°35' W 122°21'1 2.0
2018-Aug-10 00:00N 47°34' W 122°21'1 2.0
2018-Aug-09 23:30N 47°35' W 122°21'1 2.3
2018-Aug-09 23:00N 47°36' W 122°22'2 4.3
2018-Aug-09 22:30N 47°35' W 122°25'3 6.9
2018-Aug-09 22:00N 47°32' W 122°28'3 7.0
2018-Aug-09 21:30N 47°29' W 122°30'4 7.3
2018-Aug-09 21:00N 47°25' W 122°32'4 7.4
2018-Aug-09 20:30N 47°22' W 122°32'4 6.8
2018-Aug-09 19:59N 47°19' W 122°29'3 6.6
2018-Aug-09 19:30N 47°17' W 122°26'1 1.7
2018-Aug-09 18:59N 47°16' W 122°25'0 0.0
2018-Aug-09 18:30N 47°16' W 122°25'0 0.0
2018-Aug-09 18:00N 47°16' W 122°25'0 0.0
2018-Aug-09 17:30N 47°16' W 122°25'0 0.0
2018-Aug-09 16:58N 47°16' W 122°25'0 0.0
2018-Aug-09 16:30N 47°16' W 122°25'0 0.0
2018-Aug-09 15:58N 47°16' W 122°25'0 0.0
2018-Aug-09 15:21N 47°16' W 122°25'0 0.0
2018-Aug-09 14:51N 47°16' W 122°25'1 1.6
2018-Aug-09 14:30N 47°16' W 122°25'1 2.1
2018-Aug-09 14:00N 47°16' W 122°26'0 0.0
2018-Aug-09 13:30N 47°16' W 122°26'0 0.0
2018-Aug-09 13:00N 47°16' W 122°26'0 0.0
2018-Aug-09 12:30N 47°16' W 122°26'0 0.0
2018-Aug-09 12:00N 47°16' W 122°26'0 0.0
2018-Aug-09 11:30N 47°16' W 122°26'0 0.0
2018-Aug-09 11:00N 47°16' W 122°26'0 0.1
2018-Aug-09 10:30N 47°15' W 122°26'0 0.1
2018-Aug-09 10:00N 47°16' W 122°26'0 0.0
2018-Aug-09 09:30N 47°16' W 122°26'0 0.0
2018-Aug-09 09:00N 47°16' W 122°26'0 0.0
2018-Aug-09 08:30N 47°16' W 122°26'0 0.0
2018-Aug-09 08:00N 47°16' W 122°26'0 0.0
2018-Aug-09 07:30N 47°16' W 122°26'0 0.0
2018-Aug-09 07:00N 47°16' W 122°26'0 0.0
2018-Aug-09 06:30N 47°16' W 122°26'0 0.0
2018-Aug-09 06:00N 47°16' W 122°26'0 0.0
2018-Aug-09 05:30N 47°16' W 122°26'0 0.0
2018-Aug-09 05:00N 47°15' W 122°26'1 2.6
2018-Aug-09 04:30N 47°17' W 122°27'1 2.4
2018-Aug-09 04:00N 47°18' W 122°28'2 4.0
2018-Aug-09 03:30N 47°20' W 122°27'3 5.9
2018-Aug-09 03:00N 47°22' W 122°24'3 5.1
2018-Aug-09 02:30N 47°24' W 122°22'3 6.1
2018-Aug-09 02:00N 47°27' W 122°25'3 5.9
2018-Aug-09 01:30N 47°29' W 122°26'3 5.9
2018-Aug-09 01:00N 47°32' W 122°27'3 6.1
2018-Aug-09 00:30N 47°35' W 122°28'3 6.1
2018-Aug-09 00:00N 47°38' W 122°28'3 5.9
2018-Aug-08 23:30N 47°41' W 122°28'3 6.0
2018-Aug-08 23:00N 47°44' W 122°27'3 6.3
2018-Aug-08 22:30N 47°47' W 122°28'3 5.7
2018-Aug-08 22:00N 47°50' W 122°28'3 5.4
2018-Aug-08 21:30N 47°53' W 122°29'3 5.7
2018-Aug-08 21:00N 47°55' W 122°31'31 6.9
2018-Aug-08 16:31N 48°25' W 122°45'3 8.0
2018-Aug-08 16:10N 48°28' W 122°45'1 8.0
2018-Aug-08 16:00N 48°29' W 122°45'5 9.0
2018-Aug-08 15:28N 48°34' W 122°45'4 8.8
2018-Aug-08 15:00N 48°38' W 122°45'4 7.9
2018-Aug-08 14:30N 48°42' W 122°44'2 0.1
2018-Aug-08 03:14N 48°43' W 122°44'2 7.1
2018-Aug-08 03:00N 48°42' W 122°43'4 7.2
2018-Aug-08 02:30N 48°39' W 122°40'4 7.0
2018-Aug-08 02:00N 48°36' W 122°37'4 7.1
2018-Aug-08 01:29N 48°33' W 122°34'1 3.1
2018-Aug-08 01:00N 48°31' W 122°35'1 1.4
2018-Aug-08 00:26N 48°31' W 122°36'0 0.0
2018-Aug-07 23:56N 48°31' W 122°36'0 0.0
2018-Aug-07 23:27N 48°31' W 122°36'0 0.0
2018-Aug-07 22:56N 48°31' W 122°36'0 0.0
2018-Aug-07 22:27N 48°31' W 122°36'0 0.0
2018-Aug-07 21:56N 48°31' W 122°36'0 0.0
2018-Aug-07 21:26N 48°31' W 122°36'0 0.0
2018-Aug-07 20:56N 48°31' W 122°36'0 0.0
2018-Aug-07 20:26N 48°31' W 122°36'0 0.0
2018-Aug-07 19:56N 48°31' W 122°36'0 0.0
2018-Aug-07 19:26N 48°31' W 122°36'0 0.0
2018-Aug-07 18:56N 48°31' W 122°36'0 0.0
2018-Aug-07 18:26N 48°31' W 122°36'0 0.0
2018-Aug-07 17:56N 48°31' W 122°36'0 0.0
2018-Aug-07 17:26N 48°31' W 122°36'0 0.0
2018-Aug-07 16:50N 48°31' W 122°36'0 0.0
2018-Aug-07 16:26N 48°31' W 122°36'0 0.0
2018-Aug-07 15:50N 48°31' W 122°36'0 0.0
2018-Aug-07 15:26N 48°31' W 122°36'0 0.0
2018-Aug-07 14:38N 48°31' W 122°36'0 0.0
2018-Aug-07 14:26N 48°31' W 122°36'0 0.0
2018-Aug-07 13:56N 48°31' W 122°36'0 0.0
2018-Aug-07 13:27N 48°31' W 122°36'0 0.0
2018-Aug-07 12:56N 48°31' W 122°36'0 0.0
2018-Aug-07 12:26N 48°31' W 122°36'0 0.0
2018-Aug-07 11:44N 48°31' W 122°36'0 0.0
2018-Aug-07 11:26N 48°31' W 122°36'0 0.0
2018-Aug-07 10:56N 48°31' W 122°36'0 0.0
2018-Aug-07 10:26N 48°31' W 122°36'0 0.0
2018-Aug-07 09:56N 48°31' W 122°36'0 0.0
2018-Aug-07 09:26N 48°31' W 122°36'0 0.0
2018-Aug-07 08:56N 48°31' W 122°36'0 0.0
2018-Aug-07 08:26N 48°31' W 122°36'0 0.0
2018-Aug-07 07:56N 48°31' W 122°36'0 0.0
2018-Aug-07 07:26N 48°31' W 122°36'0 0.0
2018-Aug-07 06:56N 48°31' W 122°36'0 0.0
2018-Aug-07 06:26N 48°31' W 122°36'0 0.0
2018-Aug-07 05:56N 48°31' W 122°36'0 0.0
2018-Aug-07 05:26N 48°31' W 122°36'0 0.0
2018-Aug-07 04:50N 48°31' W 122°36'0 0.0
2018-Aug-07 04:26N 48°31' W 122°36'0 0.0
2018-Aug-07 03:50N 48°31' W 122°36'0 0.0
2018-Aug-07 03:26N 48°31' W 122°36'0 0.0
2018-Aug-07 02:56N 48°31' W 122°36'0 0.0
2018-Aug-07 02:30N 48°31' W 122°36'1 1.1
2018-Aug-07 02:00N 48°31' W 122°37'2 3.0
2018-Aug-07 01:29N 48°31' W 122°40'3 6.3
2018-Aug-07 01:00N 48°30' W 122°44'6 7.4
2018-Aug-07 00:15N 48°24' W 122°44'4 7.3
2018-Aug-06 23:43N 48°21' W 122°45'24 6.4
2018-Aug-06 20:03N 47°58' W 122°34'1 7.0
2018-Aug-06 19:54N 47°58' W 122°33'3 7.0
2018-Aug-06 19:30N 47°56' W 122°29'3 6.7
2018-Aug-06 19:00N 47°53' W 122°28'4 7.2
2018-Aug-06 18:30N 47°49' W 122°27'4 7.1
2018-Aug-06 18:00N 47°46' W 122°25'3 6.9
2018-Aug-06 17:30N 47°42' W 122°26'3 6.7
2018-Aug-06 17:00N 47°39' W 122°27'4 7.3
2018-Aug-06 16:30N 47°35' W 122°26'4 7.2
2018-Aug-06 16:00N 47°32' W 122°25'3 6.9
2018-Aug-06 15:30N 47°29' W 122°24'4 7.3
2018-Aug-06 15:00N 47°25' W 122°22'3 6.4
2018-Aug-06 14:30N 47°22' W 122°22'4 7.4
2018-Aug-06 14:00N 47°20' W 122°26'3 5.7
2018-Aug-06 13:30N 47°17' W 122°26'1 2.0
2018-Aug-06 13:00N 47°16' W 122°25'0 0.0
2018-Aug-06 12:00N 47°16' W 122°25'0 0.1
2018-Aug-06 11:30N 47°16' W 122°25'0 0.1
2018-Aug-06 10:45N 47°16' W 122°25'0 0.2
2018-Aug-06 10:30N 47°16' W 122°25'0 0.0
2018-Aug-06 10:00N 47°16' W 122°25'0 0.0
2018-Aug-06 09:30N 47°16' W 122°25'0 0.1
2018-Aug-06 09:00N 47°16' W 122°25'0 0.0
2018-Aug-06 08:30N 47°16' W 122°25'0 0.0
2018-Aug-06 07:57N 47°16' W 122°25'0 0.1
2018-Aug-06 07:30N 47°16' W 122°25'0 0.0
2018-Aug-06 06:57N 47°16' W 122°25'0 0.0
2018-Aug-06 06:30N 47°16' W 122°25'0 0.0
2018-Aug-06 06:00N 47°16' W 122°25'0 0.0
2018-Aug-06 05:30N 47°16' W 122°25'0 0.0
2018-Aug-06 04:57N 47°16' W 122°25'0 0.1
2018-Aug-06 04:24N 47°16' W 122°25'0 0.1
2018-Aug-06 04:00N 47°16' W 122°25'0 0.0
2018-Aug-06 03:30N 47°16' W 122°25'0 0.0
2018-Aug-06 03:00N 47°16' W 122°25'0 0.0
2018-Aug-06 02:21N 47°16' W 122°25'0 0.0
2018-Aug-06 02:00N 47°16' W 122°25'0 0.0
2018-Aug-06 01:30N 47°16' W 122°25'0 0.1
2018-Aug-06 01:00N 47°16' W 122°25'0 0.0
2018-Aug-06 00:27N 47°16' W 122°25'0 0.1
2018-Aug-05 23:57N 47°16' W 122°25'0 0.0
2018-Aug-05 23:18N 47°16' W 122°25'0 0.0
2018-Aug-05 23:00N 47°16' W 122°25'0 0.0
2018-Aug-05 22:30N 47°16' W 122°25'0 0.1
2018-Aug-05 21:57N 47°16' W 122°25'0 0.1
2018-Aug-05 21:30N 47°16' W 122°25'0 0.0
2018-Aug-05 21:00N 47°16' W 122°25'0 0.0
2018-Aug-05 20:30N 47°16' W 122°25'1 1.7
2018-Aug-05 20:00N 47°16' W 122°26'1 1.8
2018-Aug-05 19:29N 47°16' W 122°26'0 0.0
2018-Aug-05 18:52N 47°16' W 122°26'0 0.0
2018-Aug-05 18:28N 47°16' W 122°26'0 0.0
2018-Aug-05 16:34N 47°16' W 122°26'0 0.0
2018-Aug-05 16:16N 47°16' W 122°26'0 0.0
2018-Aug-05 15:58N 47°16' W 122°26'0 0.0
2018-Aug-05 15:16N 47°16' W 122°26'0 0.0
2018-Aug-05 12:28N 47°16' W 122°26'0 0.0
2018-Aug-05 11:58N 47°16' W 122°26'0 0.0
2018-Aug-05 11:28N 47°16' W 122°26'0 0.0
2018-Aug-05 10:58N 47°16' W 122°26'0 0.0
2018-Aug-05 10:28N 47°16' W 122°26'0 0.0
2018-Aug-05 08:40N 47°16' W 122°26'0 0.0
2018-Aug-05 08:28N 47°16' W 122°26'0 0.0
2018-Aug-05 07:52N 47°16' W 122°26'0 0.0
2018-Aug-05 07:28N 47°16' W 122°26'0 0.0
2018-Aug-05 06:52N 47°16' W 122°26'0 0.0
2018-Aug-05 06:22N 47°16' W 122°26'0 0.0
2018-Aug-05 05:52N 47°16' W 122°26'0 0.0
2018-Aug-05 05:28N 47°16' W 122°26'0 0.0
2018-Aug-05 05:00N 47°16' W 122°26'1 1.9
2018-Aug-05 04:30N 47°16' W 122°26'2 4.4
2018-Aug-05 04:00N 47°19' W 122°27'3 6.4
2018-Aug-05 03:30N 47°21' W 122°25'3 6.1
2018-Aug-05 03:00N 47°24' W 122°22'3 6.8
2018-Aug-05 02:30N 47°27' W 122°25'3 6.8
2018-Aug-05 02:00N 47°30' W 122°26'3 6.9
2018-Aug-05 01:30N 47°33' W 122°26'3 6.5
2018-Aug-05 01:00N 47°36' W 122°24'2 3.9
2018-Aug-05 00:30N 47°36' W 122°21'0 0.3
2018-Aug-04 23:44N 47°35' W 122°21'0 1.8
2018-Aug-04 23:30N 47°35' W 122°21'1 0.1
2018-Aug-04 15:15N 47°34' W 122°21'0 0.0
2018-Aug-04 14:45N 47°34' W 122°21'0 0.0
2018-Aug-04 05:51N 47°34' W 122°21'0 0.0
2018-Aug-04 05:27N 47°34' W 122°21'0 0.0
2018-Aug-04 05:00N 47°34' W 122°21'0 0.0
2018-Aug-04 04:15N 47°34' W 122°21'0 0.0
2018-Aug-04 03:57N 47°34' W 122°21'0 0.0
2018-Aug-03 23:39N 47°34' W 122°21'  
Track history (hours):
 
Tides and Currents Weather Stations Pressure Air Temp Water Temp Dewpoint Dewpoint Depression Visibility Wind Speed Wind Dir Waves Ship Positions

Olympic Scout

Owner: Harley Marine Services, Inc., Seattle, WA. More information available from US FCC via Universal Licensing System and Coast Guard Vessel Documentation Center.

Last reported at 2018-Aug-13 23:20 UTC. Time now 2018-Aug-14 07:03 UTC.
Position N 48°43' W 122°44'.

Length 31 m; draft 0.3 m.

Type: Tug. MMSI: 366998440.

Date/timePositionNaut miles runAvg speedWind from/ knotsBaromVisibWave heightAir tempDewpointWater temp
2018-Aug-13 23:20N 48°43' W 122°44'3 7.6
2018-Aug-13 23:00N 48°41' W 122°42'4 7.3
2018-Aug-13 22:30N 48°37' W 122°44'4 7.6
2018-Aug-13 22:00N 48°34' W 122°45'3 6.4
2018-Aug-13 21:30N 48°30' W 122°44'34 6.7
2018-Aug-13 16:21N 47°57' W 122°32'3 9.3
2018-Aug-13 16:00N 47°55' W 122°29'4 8.8
2018-Aug-13 15:30N 47°50' W 122°27'4 8.3
2018-Aug-13 15:00N 47°46' W 122°26'4 7.8
2018-Aug-13 14:30N 47°42' W 122°26'4 7.3
2018-Aug-13 14:00N 47°39' W 122°26'4 7.6
2018-Aug-13 13:30N 47°36' W 122°22'1 2.5
2018-Aug-13 13:00N 47°35' W 122°21'0 0.0
2018-Aug-13 12:30N 47°35' W 122°21'0 0.0
2018-Aug-13 11:59N 47°35' W 122°21'0 0.0
2018-Aug-13 11:30N 47°35' W 122°21'0 0.0
2018-Aug-13 11:00N 47°35' W 122°21'0 0.1
2018-Aug-13 10:30N 47°35' W 122°21'0 0.1
2018-Aug-13 10:00N 47°35' W 122°21'0 0.0
2018-Aug-13 09:30N 47°35' W 122°21'0 0.0
2018-Aug-13 09:00N 47°35' W 122°21'0 0.0
2018-Aug-13 08:30N 47°35' W 122°21'0 0.0
2018-Aug-13 08:00N 47°35' W 122°21'0 0.0
2018-Aug-13 07:30N 47°35' W 122°21'0 0.0
2018-Aug-13 07:00N 47°35' W 122°21'0 0.0
2018-Aug-13 06:30N 47°35' W 122°21'0 0.0
2018-Aug-13 06:00N 47°35' W 122°21'0 0.0
2018-Aug-13 05:30N 47°35' W 122°21'0 0.0
2018-Aug-13 05:00N 47°35' W 122°21'0 0.0
2018-Aug-13 04:30N 47°35' W 122°21'0 0.0
2018-Aug-13 04:00N 47°35' W 122°21'0 0.0
2018-Aug-13 03:30N 47°35' W 122°21'1 2.0
2018-Aug-13 02:59N 47°34' W 122°21'0 0.0
2018-Aug-13 02:30N 47°34' W 122°21'0 0.0
2018-Aug-13 02:00N 47°34' W 122°21'0 0.0
2018-Aug-13 01:30N 47°34' W 122°21'0 0.0
2018-Aug-13 01:00N 47°34' W 122°21'0 0.0
2018-Aug-13 00:30N 47°34' W 122°21'0 0.0
2018-Aug-12 23:58N 47°34' W 122°21'0 0.0
2018-Aug-12 23:30N 47°34' W 122°21'0 0.0
2018-Aug-12 23:00N 47°34' W 122°21'0 0.0
2018-Aug-12 22:30N 47°34' W 122°21'0 0.0
2018-Aug-12 22:00N 47°34' W 122°21'0 0.0
2018-Aug-12 21:30N 47°34' W 122°21'0 0.0
2018-Aug-12 21:00N 47°34' W 122°21'0 0.0
2018-Aug-12 20:30N 47°34' W 122°21'1 1.2
2018-Aug-12 20:00N 47°35' W 122°21'1 1.2
2018-Aug-12 19:30N 47°34' W 122°21'0 0.1
2018-Aug-12 19:01N 47°34' W 122°21'1 2.0
2018-Aug-12 18:30N 47°35' W 122°21'1 1.9
2018-Aug-12 18:00N 47°36' W 122°22'3 6.0
2018-Aug-12 17:30N 47°35' W 122°26'4 7.6
2018-Aug-12 17:00N 47°31' W 122°25'4 8.1
2018-Aug-12 16:30N 47°27' W 122°24'4 7.7
2018-Aug-12 16:00N 47°24' W 122°21'4 7.2
2018-Aug-12 15:30N 47°21' W 122°24'4 7.3
2018-Aug-12 15:00N 47°18' W 122°27'2 4.4
2018-Aug-12 14:30N 47°16' W 122°26'0 0.2
2018-Aug-12 14:00N 47°16' W 122°26'0 0.0
2018-Aug-12 13:30N 47°16' W 122°26'0 0.0
2018-Aug-12 13:00N 47°16' W 122°26'0 0.0
2018-Aug-12 12:30N 47°16' W 122°26'0 0.0
2018-Aug-12 12:00N 47°16' W 122°26'0 0.0
2018-Aug-12 11:30N 47°16' W 122°26'0 0.0
2018-Aug-12 11:00N 47°16' W 122°26'0 0.0
2018-Aug-12 10:30N 47°16' W 122°26'0 0.0
2018-Aug-12 10:00N 47°16' W 122°26'0 0.0
2018-Aug-12 09:30N 47°16' W 122°26'0 0.0
2018-Aug-12 09:00N 47°16' W 122°26'0 0.0
2018-Aug-12 08:30N 47°16' W 122°26'0 0.0
2018-Aug-12 08:00N 47°16' W 122°26'0 0.0
2018-Aug-12 07:30N 47°16' W 122°26'0 0.0
2018-Aug-12 07:00N 47°16' W 122°26'0 0.0
2018-Aug-12 06:30N 47°16' W 122°26'0 0.0
2018-Aug-12 06:00N 47°16' W 122°26'0 0.0
2018-Aug-12 05:30N 47°16' W 122°26'0 0.0
2018-Aug-12 05:00N 47°16' W 122°26'0 0.0
2018-Aug-12 04:30N 47°16' W 122°26'2 2.9
2018-Aug-12 03:58N 47°17' W 122°27'1 1.3
2018-Aug-12 03:30N 47°17' W 122°27'2 3.8
2018-Aug-12 03:01N 47°19' W 122°28'3 5.5
2018-Aug-12 02:30N 47°21' W 122°25'3 5.7
2018-Aug-12 02:00N 47°23' W 122°22'3 6.5
2018-Aug-12 01:30N 47°26' W 122°24'3 5.9
2018-Aug-12 01:00N 47°29' W 122°26'3 5.9
2018-Aug-12 00:30N 47°32' W 122°27'3 6.0
2018-Aug-12 00:00N 47°35' W 122°28'3 5.9
2018-Aug-11 23:30N 47°38' W 122°28'3 6.0
2018-Aug-11 23:00N 47°41' W 122°28'3 5.7
2018-Aug-11 22:30N 47°44' W 122°28'3 5.8
2018-Aug-11 21:59N 47°47' W 122°27'3 5.7
2018-Aug-11 21:30N 47°49' W 122°28'3 6.1
2018-Aug-11 21:00N 47°52' W 122°29'3 6.0
2018-Aug-11 20:31N 47°55' W 122°30'31 3.6
2018-Aug-11 11:47N 48°25' W 122°45'2 5.6
2018-Aug-11 11:29N 48°26' W 122°45'3 5.6
2018-Aug-11 10:59N 48°29' W 122°45'3 5.3
2018-Aug-11 10:30N 48°32' W 122°45'3 5.3
2018-Aug-11 10:00N 48°34' W 122°45'3 5.2
2018-Aug-11 09:30N 48°37' W 122°45'3 5.2
2018-Aug-11 09:00N 48°39' W 122°44'3 5.3
2018-Aug-11 08:30N 48°42' W 122°44'2 0.2
2018-Aug-10 19:28N 48°44' W 122°45'3 5.6
2018-Aug-10 19:00N 48°42' W 122°43'3 5.6
2018-Aug-10 18:30N 48°39' W 122°43'3 5.2
2018-Aug-10 18:00N 48°37' W 122°45'2 4.5
2018-Aug-10 17:30N 48°35' W 122°45'3 5.2
2018-Aug-10 16:59N 48°32' W 122°44'2 3.3
2018-Aug-10 16:29N 48°30' W 122°44'2 3.8
2018-Aug-10 16:00N 48°28' W 122°44'4 3.5
2018-Aug-10 14:49N 48°24' W 122°44'2 4.3
2018-Aug-10 14:26N 48°23' W 122°44'27 7.1
2018-Aug-10 10:40N 47°57' W 122°32'1 7.5
2018-Aug-10 10:29N 47°56' W 122°31'3 7.2
2018-Aug-10 10:00N 47°53' W 122°28'4 7.2
2018-Aug-10 09:30N 47°50' W 122°27'4 7.3
2018-Aug-10 09:00N 47°46' W 122°26'4 7.1
2018-Aug-10 08:30N 47°43' W 122°26'3 6.7
2018-Aug-10 08:00N 47°39' W 122°27'3 6.7
2018-Aug-10 07:30N 47°37' W 122°24'2 4.0
2018-Aug-10 07:00N 47°36' W 122°21'0 0.5
2018-Aug-10 06:30N 47°35' W 122°21'0 0.0
2018-Aug-10 06:00N 47°35' W 122°21'0 0.0
2018-Aug-10 05:30N 47°35' W 122°21'0 0.2
2018-Aug-10 05:00N 47°35' W 122°21'0 0.4
2018-Aug-10 04:29N 47°35' W 122°21'0 0.0
2018-Aug-10 04:00N 47°35' W 122°21'0 0.0
2018-Aug-10 03:30N 47°35' W 122°21'0 0.0
2018-Aug-10 03:00N 47°35' W 122°21'0 0.0
2018-Aug-10 02:30N 47°35' W 122°21'0 0.0
2018-Aug-10 02:00N 47°35' W 122°21'0 0.0
2018-Aug-10 01:30N 47°35' W 122°21'0 0.1
2018-Aug-10 01:00N 47°35' W 122°21'0 0.5
2018-Aug-10 00:30N 47°35' W 122°21'1 2.0
2018-Aug-10 00:00N 47°34' W 122°21'1 2.0
2018-Aug-09 23:30N 47°35' W 122°21'1 2.3
2018-Aug-09 23:00N 47°36' W 122°22'2 4.3
2018-Aug-09 22:30N 47°35' W 122°25'3 6.9
2018-Aug-09 22:00N 47°32' W 122°28'3 7.0
2018-Aug-09 21:30N 47°29' W 122°30'4 7.3
2018-Aug-09 21:00N 47°25' W 122°32'4 7.4
2018-Aug-09 20:30N 47°22' W 122°32'4 6.8
2018-Aug-09 19:59N 47°19' W 122°29'3 6.6
2018-Aug-09 19:30N 47°17' W 122°26'1 1.7
2018-Aug-09 18:59N 47°16' W 122°25'0 0.0
2018-Aug-09 18:30N 47°16' W 122°25'0 0.0
2018-Aug-09 18:00N 47°16' W 122°25'0 0.0
2018-Aug-09 17:30N 47°16' W 122°25'0 0.0
2018-Aug-09 16:58N 47°16' W 122°25'0 0.0
2018-Aug-09 16:30N 47°16' W 122°25'0 0.0
2018-Aug-09 15:58N 47°16' W 122°25'0 0.0
2018-Aug-09 15:21N 47°16' W 122°25'0 0.0
2018-Aug-09 14:51N 47°16' W 122°25'1 1.6
2018-Aug-09 14:30N 47°16' W 122°25'1 2.1
2018-Aug-09 14:00N 47°16' W 122°26'0 0.0
2018-Aug-09 13:30N 47°16' W 122°26'0 0.0
2018-Aug-09 13:00N 47°16' W 122°26'0 0.0
2018-Aug-09 12:30N 47°16' W 122°26'0 0.0
2018-Aug-09 12:00N 47°16' W 122°26'0 0.0
2018-Aug-09 11:30N 47°16' W 122°26'0 0.0
2018-Aug-09 11:00N 47°16' W 122°26'0 0.1
2018-Aug-09 10:30N 47°15' W 122°26'0 0.1
2018-Aug-09 10:00N 47°16' W 122°26'0 0.0
2018-Aug-09 09:30N 47°16' W 122°26'0 0.0
2018-Aug-09 09:00N 47°16' W 122°26'0 0.0
2018-Aug-09 08:30N 47°16' W 122°26'0 0.0
2018-Aug-09 08:00N 47°16' W 122°26'0 0.0
2018-Aug-09 07:30N 47°16' W 122°26'0 0.0
2018-Aug-09 07:00N 47°16' W 122°26'0 0.0
2018-Aug-09 06:30N 47°16' W 122°26'0 0.0
2018-Aug-09 06:00N 47°16' W 122°26'0 0.0
2018-Aug-09 05:30N 47°16' W 122°26'0 0.0
2018-Aug-09 05:00N 47°15' W 122°26'1 2.6
2018-Aug-09 04:30N 47°17' W 122°27'1 2.4
2018-Aug-09 04:00N 47°18' W 122°28'2 4.0
2018-Aug-09 03:30N 47°20' W 122°27'3 5.9
2018-Aug-09 03:00N 47°22' W 122°24'3 5.1
2018-Aug-09 02:30N 47°24' W 122°22'3 6.1
2018-Aug-09 02:00N 47°27' W 122°25'3 5.9
2018-Aug-09 01:30N 47°29' W 122°26'3 5.9
2018-Aug-09 01:00N 47°32' W 122°27'3 6.1
2018-Aug-09 00:30N 47°35' W 122°28'3 6.1
2018-Aug-09 00:00N 47°38' W 122°28'3 5.9
2018-Aug-08 23:30N 47°41' W 122°28'3 6.0
2018-Aug-08 23:00N 47°44' W 122°27'3 6.3
2018-Aug-08 22:30N 47°47' W 122°28'3 5.7
2018-Aug-08 22:00N 47°50' W 122°28'3 5.4
2018-Aug-08 21:30N 47°53' W 122°29'3 5.7
2018-Aug-08 21:00N 47°55' W 122°31'31 6.9
2018-Aug-08 16:31N 48°25' W 122°45'3 8.0
2018-Aug-08 16:10N 48°28' W 122°45'1 8.0
2018-Aug-08 16:00N 48°29' W 122°45'5 9.0
2018-Aug-08 15:28N 48°34' W 122°45'4 8.8
2018-Aug-08 15:00N 48°38' W 122°45'4 7.9
2018-Aug-08 14:30N 48°42' W 122°44'2 0.1
2018-Aug-08 03:14N 48°43' W 122°44'2 7.1
2018-Aug-08 03:00N 48°42' W 122°43'4 7.2
2018-Aug-08 02:30N 48°39' W 122°40'4 7.0
2018-Aug-08 02:00N 48°36' W 122°37'4 7.1
2018-Aug-08 01:29N 48°33' W 122°34'1 3.1
2018-Aug-08 01:00N 48°31' W 122°35'1 1.4
2018-Aug-08 00:26N 48°31' W 122°36'0 0.0
2018-Aug-07 23:56N 48°31' W 122°36'0 0.0
2018-Aug-07 23:27N 48°31' W 122°36'0 0.0
2018-Aug-07 22:56N 48°31' W 122°36'0 0.0
2018-Aug-07 22:27N 48°31' W 122°36'0 0.0
2018-Aug-07 21:56N 48°31' W 122°36'0 0.0
2018-Aug-07 21:26N 48°31' W 122°36'0 0.0
2018-Aug-07 20:56N 48°31' W 122°36'0 0.0
2018-Aug-07 20:26N 48°31' W 122°36'0 0.0
2018-Aug-07 19:56N 48°31' W 122°36'0 0.0
2018-Aug-07 19:26N 48°31' W 122°36'0 0.0
2018-Aug-07 18:56N 48°31' W 122°36'0 0.0
2018-Aug-07 18:26N 48°31' W 122°36'0 0.0
2018-Aug-07 17:56N 48°31' W 122°36'0 0.0
2018-Aug-07 17:26N 48°31' W 122°36'0 0.0
2018-Aug-07 16:50N 48°31' W 122°36'0 0.0
2018-Aug-07 16:26N 48°31' W 122°36'0 0.0
2018-Aug-07 15:50N 48°31' W 122°36'0 0.0
2018-Aug-07 15:26N 48°31' W 122°36'0 0.0
2018-Aug-07 14:38N 48°31' W 122°36'0 0.0
2018-Aug-07 14:26N 48°31' W 122°36'0 0.0
2018-Aug-07 13:56N 48°31' W 122°36'0 0.0
2018-Aug-07 13:27N 48°31' W 122°36'0 0.0
2018-Aug-07 12:56N 48°31' W 122°36'0 0.0
2018-Aug-07 12:26N 48°31' W 122°36'0 0.0
2018-Aug-07 11:44N 48°31' W 122°36'0 0.0
2018-Aug-07 11:26N 48°31' W 122°36'0 0.0
2018-Aug-07 10:56N 48°31' W 122°36'0 0.0
2018-Aug-07 10:26N 48°31' W 122°36'0 0.0
2018-Aug-07 09:56N 48°31' W 122°36'0 0.0
2018-Aug-07 09:26N 48°31' W 122°36'0 0.0
2018-Aug-07 08:56N 48°31' W 122°36'0 0.0
2018-Aug-07 08:26N 48°31' W 122°36'0 0.0
2018-Aug-07 07:56N 48°31' W 122°36'0 0.0
2018-Aug-07 07:26N 48°31' W 122°36'0 0.0
2018-Aug-07 06:56N 48°31' W 122°36'0 0.0
2018-Aug-07 06:26N 48°31' W 122°36'0 0.0
2018-Aug-07 05:56N 48°31' W 122°36'0 0.0
2018-Aug-07 05:26N 48°31' W 122°36'0 0.0
2018-Aug-07 04:50N 48°31' W 122°36'0 0.0
2018-Aug-07 04:26N 48°31' W 122°36'0 0.0
2018-Aug-07 03:50N 48°31' W 122°36'0 0.0
2018-Aug-07 03:26N 48°31' W 122°36'0 0.0
2018-Aug-07 02:56N 48°31' W 122°36'0 0.0
2018-Aug-07 02:30N 48°31' W 122°36'1 1.1
2018-Aug-07 02:00N 48°31' W 122°37'2 3.0
2018-Aug-07 01:29N 48°31' W 122°40'3 6.3
2018-Aug-07 01:00N 48°30' W 122°44'6 7.4
2018-Aug-07 00:15N 48°24' W 122°44'4 7.3
2018-Aug-06 23:43N 48°21' W 122°45'24 6.4
2018-Aug-06 20:03N 47°58' W 122°34'1 7.0
2018-Aug-06 19:54N 47°58' W 122°33'3 7.0
2018-Aug-06 19:30N 47°56' W 122°29'3 6.7
2018-Aug-06 19:00N 47°53' W 122°28'4 7.2
2018-Aug-06 18:30N 47°49' W 122°27'4 7.1
2018-Aug-06 18:00N 47°46' W 122°25'3 6.9
2018-Aug-06 17:30N 47°42' W 122°26'3 6.7
2018-Aug-06 17:00N 47°39' W 122°27'4 7.3
2018-Aug-06 16:30N 47°35' W 122°26'4 7.2
2018-Aug-06 16:00N 47°32' W 122°25'3 6.9
2018-Aug-06 15:30N 47°29' W 122°24'4 7.3
2018-Aug-06 15:00N 47°25' W 122°22'3 6.4
2018-Aug-06 14:30N 47°22' W 122°22'4 7.4
2018-Aug-06 14:00N 47°20' W 122°26'3 5.7
2018-Aug-06 13:30N 47°17' W 122°26'1 2.0
2018-Aug-06 13:00N 47°16' W 122°25'0 0.0
2018-Aug-06 12:00N 47°16' W 122°25'0 0.1
2018-Aug-06 11:30N 47°16' W 122°25'0 0.1
2018-Aug-06 10:45N 47°16' W 122°25'0 0.2
2018-Aug-06 10:30N 47°16' W 122°25'0 0.0
2018-Aug-06 10:00N 47°16' W 122°25'0 0.0
2018-Aug-06 09:30N 47°16' W 122°25'0 0.1
2018-Aug-06 09:00N 47°16' W 122°25'0 0.0
2018-Aug-06 08:30N 47°16' W 122°25'0 0.0
2018-Aug-06 07:57N 47°16' W 122°25'0 0.1
2018-Aug-06 07:30N 47°16' W 122°25'0 0.0
2018-Aug-06 06:57N 47°16' W 122°25'0 0.0
2018-Aug-06 06:30N 47°16' W 122°25'0 0.0
2018-Aug-06 06:00N 47°16' W 122°25'0 0.0
2018-Aug-06 05:30N 47°16' W 122°25'0 0.0
2018-Aug-06 04:57N 47°16' W 122°25'0 0.1
2018-Aug-06 04:24N 47°16' W 122°25'0 0.1
2018-Aug-06 04:00N 47°16' W 122°25'0 0.0
2018-Aug-06 03:30N 47°16' W 122°25'0 0.0
2018-Aug-06 03:00N 47°16' W 122°25'0 0.0
2018-Aug-06 02:21N 47°16' W 122°25'0 0.0
2018-Aug-06 02:00N 47°16' W 122°25'0 0.0
2018-Aug-06 01:30N 47°16' W 122°25'0 0.1
2018-Aug-06 01:00N 47°16' W 122°25'0 0.0
2018-Aug-06 00:27N 47°16' W 122°25'0 0.1
2018-Aug-05 23:57N 47°16' W 122°25'0 0.0
2018-Aug-05 23:18N 47°16' W 122°25'0 0.0
2018-Aug-05 23:00N 47°16' W 122°25'0 0.0
2018-Aug-05 22:30N 47°16' W 122°25'0 0.1
2018-Aug-05 21:57N 47°16' W 122°25'0 0.1
2018-Aug-05 21:30N 47°16' W 122°25'0 0.0
2018-Aug-05 21:00N 47°16' W 122°25'0 0.0
2018-Aug-05 20:30N 47°16' W 122°25'1 1.7
2018-Aug-05 20:00N 47°16' W 122°26'1 1.8
2018-Aug-05 19:29N 47°16' W 122°26'0 0.0
2018-Aug-05 18:52N 47°16' W 122°26'0 0.0
2018-Aug-05 18:28N 47°16' W 122°26'0 0.0
2018-Aug-05 16:34N 47°16' W 122°26'0 0.0
2018-Aug-05 16:16N 47°16' W 122°26'0 0.0
2018-Aug-05 15:58N 47°16' W 122°26'0 0.0
2018-Aug-05 15:16N 47°16' W 122°26'0 0.0
2018-Aug-05 12:28N 47°16' W 122°26'0 0.0
2018-Aug-05 11:58N 47°16' W 122°26'0 0.0
2018-Aug-05 11:28N 47°16' W 122°26'0 0.0
2018-Aug-05 10:58N 47°16' W 122°26'0 0.0
2018-Aug-05 10:28N 47°16' W 122°26'0 0.0
2018-Aug-05 08:40N 47°16' W 122°26'0 0.0
2018-Aug-05 08:28N 47°16' W 122°26'0 0.0
2018-Aug-05 07:52N 47°16' W 122°26'0 0.0
2018-Aug-05 07:28N 47°16' W 122°26'0 0.0
2018-Aug-05 06:52N 47°16' W 122°26'0 0.0
2018-Aug-05 06:22N 47°16' W 122°26'0 0.0
2018-Aug-05 05:52N 47°16' W 122°26'0 0.0
2018-Aug-05 05:28N 47°16' W 122°26'0 0.0
2018-Aug-05 05:00N 47°16' W 122°26'1 1.9
2018-Aug-05 04:30N 47°16' W 122°26'2 4.4
2018-Aug-05 04:00N 47°19' W 122°27'3 6.4
2018-Aug-05 03:30N 47°21' W 122°25'3 6.1
2018-Aug-05 03:00N 47°24' W 122°22'3 6.8
2018-Aug-05 02:30N 47°27' W 122°25'3 6.8
2018-Aug-05 02:00N 47°30' W 122°26'3 6.9
2018-Aug-05 01:30N 47°33' W 122°26'3 6.5
2018-Aug-05 01:00N 47°36' W 122°24'2 3.9
2018-Aug-05 00:30N 47°36' W 122°21'0 0.3
2018-Aug-04 23:44N 47°35' W 122°21'0 1.8
2018-Aug-04 23:30N 47°35' W 122°21'1 0.1
2018-Aug-04 15:15N 47°34' W 122°21'0 0.0
2018-Aug-04 14:45N 47°34' W 122°21'0 0.0
2018-Aug-04 05:51N 47°34' W 122°21'0 0.0
2018-Aug-04 05:27N 47°34' W 122°21'0 0.0
2018-Aug-04 05:00N 47°34' W 122°21'0 0.0
2018-Aug-04 04:15N 47°34' W 122°21'0 0.0
2018-Aug-04 03:57N 47°34' W 122°21'0 0.0
2018-Aug-03 23:39N 47°34' W 122°21'  

Dump ship's entire track history